Time;durP1;ratioP1;P1;durP2;ratioP2;P2;SDS_P1;SDS_P2;PMS_P1;PMS_P2;Temp;Humidity;BMP_temperature;BMP_pressure;BME280_temperature;BME280_humidity;BME280_pressure;Samples;Min_cycle;Max_cycle;Signal;HPM_P1;HPM_P2
2021/10/16 00:01:37;;;;;;;8.18;1.85;;;9.30;92.00;;;;;;4993815;28;20042;-67
2021/10/16 00:04:02;;;;;;;4.63;1.67;;;9.30;92.10;;;;;;5012822;28;20059;-67
2021/10/16 00:06:28;;;;;;;7.07;1.50;;;9.20;92.20;;;;;;5009412;28;20471;-67
2021/10/16 00:08:54;;;;;;;6.30;1.70;;;9.20;92.50;;;;;;5001993;28;20030;-67
2021/10/16 00:11:20;;;;;;;5.88;1.30;;;9.20;92.50;;;;;;5013797;28;20046;-68
2021/10/16 00:13:45;;;;;;;5.75;1.23;;;9.20;92.60;;;;;;5014096;28;20066;-67
2021/10/16 00:16:11;;;;;;;5.45;1.30;;;9.20;92.60;;;;;;5010734;28;20472;-67
2021/10/16 00:18:37;;;;;;;4.35;0.85;;;9.20;92.50;;;;;;4980486;28;20033;-67
2021/10/16 00:21:04;;;;;;;6.55;1.17;;;9.20;92.40;;;;;;5010283;28;20205;-66
2021/10/16 00:23:30;;;;;;;5.32;1.20;;;9.20;92.30;;;;;;5013384;28;20115;-67
2021/10/16 00:25:56;;;;;;;3.25;1.08;;;9.20;92.30;;;;;;5010680;28;20148;-66
2021/10/16 00:28:22;;;;;;;6.53;1.30;;;9.10;92.20;;;;;;5007191;28;20030;-67
2021/10/16 00:30:47;;;;;;;4.43;1.30;;;9.10;92.30;;;;;;4975397;28;20044;-67
2021/10/16 00:33:14;;;;;;;3.78;1.30;;;9.10;92.30;;;;;;4977119;28;20046;-67
2021/10/16 00:35:40;;;;;;;6.45;1.60;;;9.10;92.30;;;;;;4996210;28;20036;-67
2021/10/16 00:38:06;;;;;;;3.72;1.27;;;9.10;92.30;;;;;;5009139;28;20743;-66
2021/10/16 00:40:32;;;;;;;7.20;1.40;;;9.10;92.30;;;;;;5003076;28;20065;-67
2021/10/16 00:42:58;;;;;;;3.35;1.23;;;9.00;92.30;;;;;;4990199;28;20490;-66
2021/10/16 00:45:25;;;;;;;3.95;1.23;;;9.00;92.20;;;;;;4991942;28;20033;-66
2021/10/16 00:47:51;;;;;;;6.35;1.40;;;9.00;92.30;;;;;;4989095;28;20561;-66
2021/10/16 00:50:20;;;;;;;3.60;1.20;;;9.00;92.30;;;;;;5009887;28;20049;-66
2021/10/16 00:52:46;;;;;;;6.95;1.67;;;8.90;92.20;;;;;;4992226;28;20152;-67
2021/10/16 00:55:15;;;;;;;6.50;1.35;;;8.90;92.20;;;;;;5010931;28;20947;-67
2021/10/16 00:57:42;;;;;;;5.00;1.10;;;8.90;92.10;;;;;;4990575;28;20123;-66
2021/10/16 01:00:10;;;;;;;5.57;1.30;;;8.90;92.50;;;;;;4991589;28;20045;-66
2021/10/16 01:02:36;;;;;;;4.80;1.40;;;8.80;92.20;;;;;;5006295;28;20025;-66
2021/10/16 01:05:04;;;;;;;3.90;1.33;;;8.80;92.20;;;;;;4994421;28;20037;-66
2021/10/16 01:07:31;;;;;;;5.00;1.38;;;8.80;92.20;;;;;;4989104;28;20139;-67
2021/10/16 01:09:57;;;;;;;3.67;1.30;;;8.80;92.30;;;;;;4991335;28;20071;-66
2021/10/16 01:12:24;;;;;;;6.80;1.20;;;8.80;92.30;;;;;;5010901;28;20551;-66
2021/10/16 01:14:55;;;;;;;4.43;1.40;;;8.80;92.60;;;;;;5010613;28;20437;-66
2021/10/16 01:17:22;;;;;;;4.32;1.30;;;8.80;92.40;;;;;;4989553;28;20049;-66
2021/10/16 01:19:54;;;;;;;5.28;1.90;;;8.80;92.40;;;;;;4991377;28;20134;-66
2021/10/16 01:22:22;;;;;;;4.65;1.75;;;8.80;92.60;;;;;;5009398;28;20663;-67
2021/10/16 01:24:49;;;;;;;4.93;1.50;;;8.80;92.60;;;;;;4973483;28;20034;-67
2021/10/16 01:27:16;;;;;;;6.32;1.38;;;8.80;92.60;;;;;;4988011;28;20029;-66
2021/10/16 01:29:42;;;;;;;3.42;1.23;;;8.80;92.60;;;;;;5007105;28;20485;-66
2021/10/16 01:32:08;;;;;;;4.97;0.95;;;8.80;92.50;;;;;;4989985;28;20127;-66
2021/10/16 01:34:34;;;;;;;3.63;1.20;;;8.80;92.50;;;;;;4992784;28;20026;-67
2021/10/16 01:37:00;;;;;;;3.88;1.05;;;8.80;92.50;;;;;;4989658;28;20767;-66
2021/10/16 01:39:31;;;;;;;3.58;1.40;;;8.80;92.50;;;;;;4988966;28;20811;-67
2021/10/16 01:41:57;;;;;;;7.10;2.00;;;8.70;92.40;;;;;;4994673;28;20114;-68
2021/10/16 01:44:23;;;;;;;6.97;1.52;;;8.70;92.40;;;;;;4993179;28;20577;-66
2021/10/16 01:46:50;;;;;;;5.05;1.33;;;8.70;92.50;;;;;;4978000;28;20032;-67
2021/10/16 01:49:20;;;;;;;10.43;1.88;;;8.70;92.40;;;;;;4996040;28;20481;-67
2021/10/16 01:51:49;;;;;;;7.72;1.35;;;8.70;92.40;;;;;;4995332;28;20045;-66
2021/10/16 01:54:16;;;;;;;3.53;1.10;;;8.60;92.40;;;;;;4996265;28;20025;-66
2021/10/16 01:56:52;;;;;;;4.82;1.30;;;8.60;92.40;;;;;;5009311;28;20071;-66
2021/10/16 01:59:19;;;;;;;3.38;1.20;;;8.60;92.40;;;;;;4993714;28;20069;-66
2021/10/16 02:02:14;;;;;;;3.25;1.33;;;8.60;92.30;;;;;;4993067;28;20225;-66
2021/10/16 02:04:48;;;;;;;5.63;1.67;;;8.50;92.40;;;;;;4993064;28;20136;-66
2021/10/16 02:07:14;;;;;;;3.35;1.20;;;8.50;92.50;;;;;;4992631;28;20381;-66
2021/10/16 02:09:39;;;;;;;5.95;1.33;;;8.50;92.50;;;;;;4996080;28;20489;-66
2021/10/16 02:12:05;;;;;;;8.98;1.50;;;8.50;92.50;;;;;;4974292;28;20040;-67
2021/10/16 02:14:36;;;;;;;4.05;1.00;;;8.50;92.60;;;;;;4995576;28;20029;-66
2021/10/16 02:17:05;;;;;;;6.03;1.20;;;8.40;92.60;;;;;;4994677;28;20028;-66
2021/10/16 02:19:31;;;;;;;3.97;1.05;;;8.40;92.50;;;;;;4994593;28;20034;-66
2021/10/16 02:21:57;;;;;;;6.07;1.30;;;8.40;92.60;;;;;;4975096;28;20034;-66
2021/10/16 02:24:26;;;;;;;5.53;1.20;;;8.40;92.60;;;;;;4991588;28;20026;-67
2021/10/16 02:26:51;;;;;;;5.80;1.50;;;8.40;92.60;;;;;;4994658;28;20029;-66
2021/10/16 02:29:20;;;;;;;4.93;1.52;;;8.40;92.60;;;;;;5010562;28;20543;-66
2021/10/16 02:32:07;;;;;;;4.28;1.33;;;8.40;92.60;;;;;;4992949;28;20088;-66
2021/10/16 02:34:35;;;;;;;3.60;0.98;;;8.40;92.70;;;;;;4992664;28;20834;-66
2021/10/16 02:37:05;;;;;;;3.65;1.23;;;8.30;92.70;;;;;;4992843;28;20033;-66
2021/10/16 02:39:31;;;;;;;5.45;1.45;;;8.40;92.70;;;;;;4988747;28;20027;-66
2021/10/16 02:41:58;;;;;;;9.07;1.35;;;8.40;92.70;;;;;;5011863;28;20034;-67
2021/10/16 02:44:30;;;;;;;3.22;1.17;;;8.40;92.60;;;;;;4992615;28;20029;-66
2021/10/16 02:46:56;;;;;;;5.25;1.40;;;8.40;92.60;;;;;;4975215;28;20517;-67
2021/10/16 02:49:22;;;;;;;5.15;1.17;;;8.40;92.60;;;;;;4990592;28;20049;-66
2021/10/16 02:51:48;;;;;;;4.97;1.08;;;8.30;92.60;;;;;;4993936;28;20034;-66
2021/10/16 02:54:13;;;;;;;4.13;1.15;;;8.30;92.70;;;;;;4974802;28;20035;-67
2021/10/16 02:56:41;;;;;;;4.82;1.33;;;8.30;92.60;;;;;;4991059;28;20041;-66
2021/10/16 02:59:12;;;;;;;3.88;1.10;;;8.30;92.40;;;;;;4991286;28;20444;-66
2021/10/16 03:01:50;;;;;;;4.63;1.15;;;8.30;92.60;;;;;;4991406;28;20037;-67
2021/10/16 03:04:22;;;;;;;5.90;1.70;;;8.20;92.60;;;;;;5006215;28;20467;-66
2021/10/16 03:06:48;;;;;;;9.23;2.28;;;8.20;92.60;;;;;;4992808;28;20042;-67
2021/10/16 03:09:17;;;;;;;5.45;1.35;;;8.10;92.50;;;;;;4994364;28;20087;-66
2021/10/16 03:11:44;;;;;;;3.50;1.40;;;8.10;92.40;;;;;;4993424;28;20034;-66
2021/10/16 03:14:10;;;;;;;3.00;1.10;;;8.10;92.50;;;;;;4974776;28;20104;-66
2021/10/16 03:16:36;;;;;;;6.22;1.50;;;8.00;92.60;;;;;;4989709;28;20025;-66
2021/10/16 03:19:04;;;;;;;4.18;1.30;;;8.10;92.60;;;;;;4989548;28;20045;-67
2021/10/16 03:21:30;;;;;;;7.75;1.48;;;8.00;92.60;;;;;;4996362;28;20509;-66
2021/10/16 03:23:56;;;;;;;4.63;1.38;;;8.00;92.60;;;;;;4992325;28;20136;-66
2021/10/16 03:26:22;;;;;;;1.80;1.05;;;8.10;92.70;;;;;;4994878;28;20517;-66
2021/10/16 03:28:47;;;;;;;4.88;1.27;;;8.10;92.70;;;;;;4994393;28;20432;-66
2021/10/16 03:31:13;;;;;;;5.88;2.55;;;8.10;92.60;;;;;;5010076;28;20040;-66
2021/10/16 03:33:39;;;;;;;3.92;1.20;;;8.20;92.90;;;;;;4992221;28;20048;-66
2021/10/16 03:36:05;;;;;;;3.90;1.23;;;8.30;92.50;;;;;;5007868;28;20063;-66
2021/10/16 03:38:30;;;;;;;3.10;0.93;;;8.30;92.50;;;;;;5010660;28;20034;-65
2021/10/16 03:40:56;;;;;;;6.45;1.90;;;8.40;92.50;;;;;;4990751;28;20069;-66
2021/10/16 03:43:22;;;;;;;4.03;1.88;;;8.40;92.50;;;;;;4991029;28;20033;-66
2021/10/16 03:45:47;;;;;;;4.22;1.67;;;8.50;92.50;;;;;;4959534;28;20141;-66
2021/10/16 03:48:16;;;;;;;2.53;1.33;;;8.50;92.50;;;;;;4991214;28;20029;-66
2021/10/16 03:50:41;;;;;;;4.80;1.58;;;8.60;92.50;;;;;;5011274;28;20047;-65
2021/10/16 03:53:07;;;;;;;8.20;1.50;;;8.60;92.40;;;;;;5008900;28;20037;-66
2021/10/16 03:55:34;;;;;;;5.35;1.40;;;8.70;92.40;;;;;;4991177;28;20037;-66
2021/10/16 03:58:00;;;;;;;8.38;1.40;;;8.80;92.30;;;;;;4996439;28;20707;-65
2021/10/16 04:00:25;;;;;;;4.63;1.67;;;8.80;92.30;;;;;;4993857;28;20029;-65
2021/10/16 04:03:03;;;;;;;5.43;1.45;;;8.90;92.50;;;;;;4994436;28;20104;-65
2021/10/16 04:05:29;;;;;;;6.78;1.42;;;8.90;92.40;;;;;;5008878;28;20030;-65
2021/10/16 04:07:55;;;;;;;5.20;1.73;;;8.90;92.40;;;;;;4996252;28;20034;-65
2021/10/16 04:10:20;;;;;;;5.53;1.70;;;9.00;92.50;;;;;;4994456;28;20052;-65
2021/10/16 04:12:46;;;;;;;6.95;1.75;;;9.00;92.30;;;;;;4992934;28;20040;-65
2021/10/16 04:15:12;;;;;;;6.13;2.05;;;9.00;92.30;;;;;;4993204;28;20041;-67
2021/10/16 04:17:38;;;;;;;7.95;1.73;;;9.10;92.10;;;;;;4993781;28;20096;-64
2021/10/16 04:20:04;;;;;;;5.03;1.38;;;9.20;92.10;;;;;;4982064;28;20033;-65
2021/10/16 04:22:35;;;;;;;6.65;1.63;;;9.20;92.10;;;;;;4994284;28;20029;-64
2021/10/16 04:25:02;;;;;;;4.15;1.52;;;9.20;92.10;;;;;;4989307;28;20026;-66
2021/10/16 04:27:28;;;;;;;3.88;1.30;;;9.20;92.10;;;;;;4978589;28;20080;-66
2021/10/16 04:30:08;;;;;;;6.97;2.10;;;9.30;92.20;;;;;;4994997;28;20124;-66
2021/10/16 04:32:36;;;;;;;5.55;1.73;;;9.30;92.10;;;;;;4988361;28;20034;-66
2021/10/16 04:35:07;;;;;;;5.35;1.50;;;9.30;92.20;;;;;;4988777;28;20037;-66
2021/10/16 04:37:34;;;;;;;7.15;1.42;;;9.30;92.30;;;;;;4985961;28;20152;-65
2021/10/16 04:40:07;;;;;;;5.82;1.55;;;9.30;92.30;;;;;;5006940;28;20033;-65
2021/10/16 04:42:34;;;;;;;4.05;1.45;;;9.40;92.30;;;;;;4984853;28;20478;-66
2021/10/16 04:45:00;;;;;;;11.68;2.28;;;9.40;92.10;;;;;;4974634;28;20038;-67
2021/10/16 04:47:26;;;;;;;3.10;1.35;;;9.40;92.10;;;;;;4987796;28;20030;-65
2021/10/16 04:49:52;;;;;;;7.45;1.80;;;9.50;92.10;;;;;;5003254;28;20523;-66
2021/10/16 04:52:19;;;;;;;4.65;1.73;;;9.50;92.00;;;;;;4987642;28;20026;-66
2021/10/16 04:54:45;;;;;;;7.40;1.73;;;9.50;91.80;;;;;;4988812;28;20032;-66
2021/10/16 04:57:11;;;;;;;6.18;1.60;;;9.60;91.80;;;;;;4970130;28;20044;-68
2021/10/16 04:59:37;;;;;;;7.55;1.63;;;9.60;91.70;;;;;;4986776;28;20025;-65
2021/10/16 05:02:04;;;;;;;4.30;1.58;;;9.60;91.70;;;;;;4989853;28;20042;-65
2021/10/16 05:04:33;;;;;;;6.10;1.65;;;9.60;91.60;;;;;;4985252;28;20061;-65
2021/10/16 05:06:59;;;;;;;6.43;1.83;;;9.60;91.50;;;;;;4988628;28;20032;-74
2021/10/16 05:09:25;;;;;;;5.50;2.03;;;9.70;91.40;;;;;;4987085;28;20030;-67
2021/10/16 05:11:52;;;;;;;4.55;1.83;;;9.70;91.40;;;;;;4991182;28;20068;-69
2021/10/16 05:14:17;;;;;;;5.88;1.45;;;9.70;91.60;;;;;;4985610;28;20425;-68
2021/10/16 05:16:44;;;;;;;4.40;1.63;;;9.70;91.60;;;;;;4994547;28;20553;-66
2021/10/16 05:19:09;;;;;;;4.75;1.70;;;9.70;91.60;;;;;;4990809;28;20116;-72
2021/10/16 05:21:35;;;;;;;3.42;1.67;;;9.70;91.60;;;;;;4994453;28;20034;-67
2021/10/16 05:24:02;;;;;;;4.95;1.40;;;9.70;91.60;;;;;;5011607;28;20743;-68
2021/10/16 05:26:29;;;;;;;5.22;1.92;;;9.70;91.70;;;;;;4976724;28;20057;-69
2021/10/16 05:28:55;;;;;;;9.27;1.65;;;9.70;91.90;;;;;;4973283;28;20165;-69
2021/10/16 05:31:22;;;;;;;8.18;2.60;;;9.70;91.90;;;;;;4992276;28;20710;-66
2021/10/16 05:33:49;;;;;;;6.55;2.15;;;9.80;91.70;;;;;;4992074;28;20103;-66
2021/10/16 05:36:15;;;;;;;11.25;2.50;;;9.80;91.60;;;;;;4991846;28;20037;-67
2021/10/16 05:38:41;;;;;;;6.03;2.20;;;9.80;91.70;;;;;;4991086;28;20038;-70
2021/10/16 05:41:06;;;;;;;8.35;2.20;;;9.80;91.40;;;;;;4988879;28;20036;-71
2021/10/16 05:43:33;;;;;;;8.05;2.10;;;9.90;91.40;;;;;;4991251;28;20034;-67
2021/10/16 05:46:01;;;;;;;8.68;2.17;;;9.80;91.10;;;;;;4989482;28;20030;-66
2021/10/16 05:48:32;;;;;;;7.90;2.20;;;9.80;91.20;;;;;;4982794;28;20031;-65
2021/10/16 05:51:00;;;;;;;10.18;2.83;;;9.80;91.20;;;;;;4994245;28;20422;-66
2021/10/16 05:53:27;;;;;;;7.28;2.28;;;9.80;91.20;;;;;;4990522;28;20033;-66
2021/10/16 05:55:53;;;;;;;11.52;2.60;;;9.80;91.20;;;;;;4993237;28;20037;-67
2021/10/16 05:58:46;;;;;;;6.53;1.85;;;9.80;91.00;;;;;;5040169;27;20379;-73
2021/10/16 06:01:13;;;;;;;4.90;1.70;;;9.80;91.30;;;;;;5024029;28;20033;-69
2021/10/16 06:03:46;;;;;;;6.07;1.05;;;9.80;91.40;;;;;;5033982;28;20024;-71
2021/10/16 06:06:11;;;;;;;7.75;1.92;;;9.70;91.60;;;;;;5021821;28;20752;-73
2021/10/16 06:08:37;;;;;;;9.43;1.55;;;9.70;91.50;;;;;;5019165;28;20030;-69
2021/10/16 06:11:04;;;;;;;7.38;1.90;;;9.70;91.60;;;;;;5028187;28;20044;-73
2021/10/16 06:13:32;;;;;;;3.58;1.30;;;9.60;91.90;;;;;;5032637;28;20059;-68
2021/10/16 06:15:57;;;;;;;7.90;2.13;;;9.60;92.00;;;;;;5035530;28;20032;-68
2021/10/16 06:18:25;;;;;;;6.68;1.70;;;9.60;92.00;;;;;;5034635;28;20040;-69
2021/10/16 06:20:51;;;;;;;11.32;1.65;;;9.50;92.00;;;;;;5029043;28;20071;-67
2021/10/16 06:23:16;;;;;;;9.30;1.92;;;9.50;92.10;;;;;;5030987;28;20125;-67
2021/10/16 06:25:43;;;;;;;3.58;1.38;;;9.50;92.20;;;;;;5032535;28;20034;-73
2021/10/16 06:28:14;;;;;;;5.65;1.80;;;9.60;92.30;;;;;;5025973;28;20041;-72
2021/10/16 06:30:41;;;;;;;9.05;2.38;;;9.60;92.20;;;;;;5036270;28;20033;-71
2021/10/16 06:33:07;;;;;;;10.60;4.18;;;9.60;92.10;;;;;;5032728;28;20028;-68
2021/10/16 06:35:37;;;;;;;31.92;13.18;;;9.70;92.10;;;;;;5034920;28;20044;-71
2021/10/16 06:38:11;;;;;;;29.90;15.55;;;9.80;92.00;;;;;;5034024;28;20039;-67
2021/10/16 06:40:37;;;;;;;18.65;10.80;;;9.90;92.00;;;;;;5029843;28;20025;-67
2021/10/16 06:43:19;;;;;;;11.60;6.50;;;9.90;91.90;;;;;;5044234;28;20377;-67
2021/10/16 06:46:17;;;;;;;18.80;9.82;;;9.90;91.90;;;;;;5030054;28;20098;-67
2021/10/16 06:49:06;;;;;;;21.73;12.25;;;9.90;92.00;;;;;;5026398;28;20091;-67
2021/10/16 06:51:33;;;;;;;11.30;8.00;;;10.00;92.30;;;;;;5033707;28;20028;-71
2021/10/16 06:54:02;;;;;;;15.07;7.68;;;10.10;92.20;;;;;;5040538;28;20025;-68
2021/10/16 06:56:27;;;;;;;14.93;8.40;;;10.10;92.30;;;;;;5030631;28;20028;-67
2021/10/16 06:58:53;;;;;;;91.55;41.75;;;10.20;91.90;;;;;;5030421;28;20074;-67
2021/10/16 07:01:18;;;;;;;50.20;23.33;;;10.20;91.90;;;;;;5018869;28;20048;-67
2021/10/16 07:03:51;;;;;;;35.53;15.75;;;10.10;91.60;;;;;;5031674;28;20080;-66
2021/10/16 07:06:18;;;;;;;19.48;9.15;;;10.20;91.80;;;;;;5035994;28;20033;-67
2021/10/16 07:08:44;;;;;;;12.95;6.13;;;10.20;91.80;;;;;;5033844;28;20116;-67
2021/10/16 07:11:10;;;;;;;12.13;4.45;;;10.20;92.20;;;;;;5028449;28;20477;-67
2021/10/16 07:13:36;;;;;;;15.73;4.50;;;10.30;92.00;;;;;;5017798;28;20064;-67
2021/10/16 07:16:03;;;;;;;11.70;4.65;;;10.40;91.60;;;;;;5009999;28;20128;-72
2021/10/16 07:18:29;;;;;;;11.82;3.83;;;10.50;91.40;;;;;;5026898;28;20040;-72
2021/10/16 07:20:56;;;;;;;11.02;3.25;;;10.60;91.20;;;;;;5017659;28;20071;-73
2021/10/16 07:23:26;;;;;;;11.85;3.20;;;10.60;91.10;;;;;;5013553;28;20038;-75
2021/10/16 07:25:54;;;;;;;7.53;2.83;;;10.60;91.20;;;;;;5027971;28;20257;-68
2021/10/16 07:28:21;;;;;;;10.40;4.30;;;10.70;91.20;;;;;;5022923;28;20041;-70
2021/10/16 07:30:46;;;;;;;14.07;2.60;;;10.70;91.30;;;;;;5028647;28;20111;-67
2021/10/16 07:33:13;;;;;;;6.72;2.83;;;10.70;91.30;;;;;;5021317;28;20044;-73
2021/10/16 07:35:40;;;;;;;17.02;6.47;;;10.70;91.30;;;;;;5027007;28;20186;-73
2021/10/16 07:38:06;;;;;;;13.25;6.38;;;10.70;91.40;;;;;;5020278;28;20577;-71
2021/10/16 07:40:32;;;;;;;10.30;5.05;;;10.80;91.50;;;;;;5024951;28;20129;-71
2021/10/16 07:42:57;;;;;;;7.70;4.18;;;10.80;91.30;;;;;;5030667;28;20540;-69
2021/10/16 07:45:24;;;;;;;8.73;5.00;;;10.80;91.30;;;;;;5019325;28;20057;-69
2021/10/16 07:47:50;;;;;;;14.63;4.57;;;10.90;91.10;;;;;;5014520;28;20115;-69
2021/10/16 07:50:16;;;;;;;14.63;6.28;;;10.80;91.20;;;;;;5025269;28;20598;-69
2021/10/16 07:52:42;;;;;;;15.75;5.72;;;10.90;91.10;;;;;;5014326;28;20038;-69
2021/10/16 07:55:08;;;;;;;11.93;7.97;;;10.90;91.30;;;;;;5011886;28;20061;-69
2021/10/16 07:57:34;;;;;;;8.93;4.05;;;11.00;91.60;;;;;;5019102;28;20124;-69
2021/10/16 07:59:59;;;;;;;10.82;4.03;;;11.10;91.80;;;;;;5022779;28;20124;-70
2021/10/16 08:02:25;;;;;;;8.10;3.88;;;11.30;91.00;;;;;;5016441;28;20045;-72
2021/10/16 08:04:51;;;;;;;8.77;3.83;;;11.40;90.80;;;;;;5016555;28;20034;-71
2021/10/16 08:07:17;;;;;;;13.43;4.97;;;11.50;90.50;;;;;;5020035;28;20044;-75
2021/10/16 08:09:43;;;;;;;19.77;7.72;;;11.60;90.00;;;;;;5013202;28;20659;-70
2021/10/16 08:12:09;;;;;;;15.20;7.25;;;11.70;90.00;;;;;;5016653;28;20053;-72
2021/10/16 08:14:34;;;;;;;14.77;4.32;;;11.70;89.30;;;;;;5018760;28;20029;-70
2021/10/16 08:17:00;;;;;;;19.02;8.13;;;11.70;90.00;;;;;;5016451;28;20534;-69
2021/10/16 08:19:26;;;;;;;10.60;3.70;;;11.80;89.40;;;;;;5015822;28;20124;-69
2021/10/16 08:21:52;;;;;;;7.22;2.75;;;12.00;89.30;;;;;;5014846;28;20065;-69
2021/10/16 08:24:17;;;;;;;8.90;2.85;;;12.10;87.90;;;;;;5017999;28;20034;-70
2021/10/16 08:26:43;;;;;;;12.55;2.85;;;12.20;87.50;;;;;;5028118;28;20037;-70
2021/10/16 08:29:09;;;;;;;7.07;2.67;;;12.30;87.30;;;;;;5021053;28;20053;-71
2021/10/16 08:31:35;;;;;;;14.20;3.80;;;12.30;87.50;;;;;;5011738;28;20033;-70
2021/10/16 08:34:01;;;;;;;10.20;3.88;;;12.50;87.40;;;;;;5011129;28;20040;-73
2021/10/16 08:36:26;;;;;;;18.85;3.70;;;12.60;86.40;;;;;;5031291;28;20041;-74
2021/10/16 08:38:52;;;;;;;13.98;3.50;;;12.60;86.30;;;;;;5019933;28;20036;-71
2021/10/16 08:41:19;;;;;;;11.48;2.80;;;12.60;85.90;;;;;;5017025;28;20119;-72
2021/10/16 08:43:44;;;;;;;6.78;2.90;;;12.70;86.00;;;;;;5006026;28;20022;-71
2021/10/16 08:46:12;;;;;;;10.65;3.10;;;12.70;86.30;;;;;;5019220;28;20033;-68
2021/10/16 08:48:41;;;;;;;9.35;2.90;;;12.80;85.90;;;;;;5014409;28;20636;-70
2021/10/16 08:51:08;;;;;;;11.40;2.72;;;12.90;85.30;;;;;;5019461;28;20037;-70
2021/10/16 08:53:34;;;;;;;13.98;3.30;;;12.90;84.50;;;;;;5016337;28;20124;-70
2021/10/16 08:56:04;;;;;;;7.20;2.60;;;12.90;84.30;;;;;;5014467;28;20029;-70
2021/10/16 08:58:32;;;;;;;7.95;2.70;;;12.80;85.70;;;;;;5023647;28;20451;-70
2021/10/16 09:00:59;;;;;;;7.18;2.47;;;12.80;86.00;;;;;;5016301;28;20037;-73
2021/10/16 09:03:40;;;;;;;9.57;3.30;;;13.00;86.40;;;;;;5008157;28;20079;-69
2021/10/16 09:06:20;;;;;;;8.90;2.25;;;13.20;84.80;;;;;;5012558;28;20552;-72
2021/10/16 09:08:51;;;;;;;13.88;3.25;;;13.40;84.00;;;;;;5021394;28;20033;-72
2021/10/16 09:11:25;;;;;;;16.40;3.40;;;13.30;83.00;;;;;;5014895;28;20042;-73
2021/10/16 09:13:52;;;;;;;11.45;3.10;;;13.20;83.40;;;;;;5008451;28;20037;-74
2021/10/16 09:16:30;;;;;;;15.30;2.88;;;13.20;83.50;;;;;;5016751;28;20041;-73
2021/10/16 09:19:31;;;;;;;9.85;2.72;;;13.20;84.20;;;;;;5018502;28;20126;-71
2021/10/16 09:22:09;;;;;;;11.90;2.90;;;13.30;84.50;;;;;;5018624;28;20061;-71
2021/10/16 09:24:43;;;;;;;8.88;2.70;;;13.40;83.90;;;;;;5019862;28;20041;-72
2021/10/16 09:27:23;;;;;;;9.07;2.53;;;13.30;84.60;;;;;;5012140;28;20064;-74
2021/10/16 09:30:00;;;;;;;12.13;3.20;;;13.30;85.60;;;;;;5003403;28;20038;-72
2021/10/16 09:32:25;;;;;;;9.15;2.72;;;13.30;85.80;;;;;;5019039;28;20144;-73
2021/10/16 09:35:02;;;;;;;11.40;2.50;;;13.20;86.20;;;;;;5014426;28;20199;-70
2021/10/16 09:37:28;;;;;;;10.98;2.50;;;13.20;86.80;;;;;;5014117;28;20144;-70
2021/10/16 09:39:56;;;;;;;4.85;1.98;;;13.30;87.20;;;;;;5016411;28;20033;-72
2021/10/16 09:42:31;;;;;;;5.00;1.42;;;13.30;84.20;;;;;;5015509;28;20094;-74
2021/10/16 09:44:58;;;;;;;7.78;1.52;;;13.20;84.20;;;;;;5021711;28;20144;-66
2021/10/16 09:47:23;;;;;;;8.00;2.13;;;13.20;84.20;;;;;;5008568;28;20040;-72
2021/10/16 09:49:57;;;;;;;10.55;2.10;;;13.30;84.20;;;;;;5020328;28;20041;-71
2021/10/16 09:52:39;;;;;;;4.57;2.00;;;13.30;83.80;;;;;;5010564;28;20038;-73
2021/10/16 09:55:07;;;;;;;5.88;1.63;;;13.40;82.40;;;;;;5013712;28;20059;-72
2021/10/16 09:57:33;;;;;;;5.00;1.65;;;13.40;82.80;;;;;;5016234;28;20052;-72
2021/10/16 09:59:59;;;;;;;8.00;2.08;;;13.40;82.70;;;;;;5021162;28;20071;-75
2021/10/16 10:02:29;;;;;;;4.18;1.48;;;13.60;83.00;;;;;;5023562;28;20033;-75
2021/10/16 10:04:55;;;;;;;6.05;1.38;;;13.70;83.20;;;;;;5018317;28;20026;-76
2021/10/16 10:07:21;;;;;;;3.95;1.42;;;13.70;79.60;;;;;;5016946;28;20030;-76
2021/10/16 10:09:47;;;;;;;6.53;1.40;;;13.70;80.00;;;;;;5016158;28;20041;-75
2021/10/16 10:12:14;;;;;;;8.40;2.92;;;13.80;81.10;;;;;;5009156;28;20034;-67
2021/10/16 10:14:50;;;;;;;7.85;2.13;;;13.70;79.40;;;;;;5016851;28;20045;-72
2021/10/16 10:17:23;;;;;;;6.05;2.38;;;13.60;81.50;;;;;;5015794;28;20079;-72
2021/10/16 10:19:54;;;;;;;10.63;2.90;;;13.50;83.40;;;;;;5009726;28;20566;-73
2021/10/16 10:22:20;;;;;;;10.82;2.40;;;13.50;84.00;;;;;;5011305;28;20903;-72
2021/10/16 10:24:49;;;;;;;11.93;2.80;;;13.60;83.50;;;;;;5005385;28;20041;-72
2021/10/16 10:27:20;;;;;;;11.63;3.38;;;13.50;83.30;;;;;;5018305;28;20460;-74
2021/10/16 10:29:49;;;;;;;11.93;2.70;;;13.50;84.10;;;;;;5013986;28;20033;-72
2021/10/16 10:32:20;;;;;;;9.82;2.58;;;13.20;84.60;;;;;;5007758;28;20296;-74
2021/10/16 10:34:56;;;;;;;8.90;2.45;;;13.10;84.10;;;;;;5011681;28;20038;-71
2021/10/16 10:37:27;;;;;;;8.55;2.50;;;13.20;84.40;;;;;;5014724;28;20049;-68
2021/10/16 10:39:55;;;;;;;11.95;2.20;;;13.20;82.30;;;;;;5013183;28;20041;-67
2021/10/16 10:42:24;;;;;;;7.03;2.15;;;13.10;82.30;;;;;;5004902;28;20111;-72
2021/10/16 10:44:51;;;;;;;13.85;2.28;;;13.20;84.10;;;;;;5028576;28;20037;-73
2021/10/16 10:47:30;;;;;;;8.55;1.75;;;13.20;81.70;;;;;;5023822;28;20049;-72
2021/10/16 10:49:58;;;;;;;9.75;2.20;;;13.20;82.60;;;;;;5003358;28;20052;-72
2021/10/16 10:52:27;;;;;;;5.88;2.33;;;13.30;80.30;;;;;;5018892;28;20029;-71
2021/10/16 10:55:14;;;;;;;9.07;1.98;;;13.40;82.60;;;;;;5016931;28;20039;-72
2021/10/16 10:57:43;;;;;;;;;;;13.50;82.60;;;;;;5019457;28;20049;-71
2021/10/16 11:00:13;;;;;;;7.40;2.35;;;13.60;82.10;;;;;;5013244;28;19916;-71
2021/10/16 11:02:39;;;;;;;7.68;1.73;;;13.70;81.40;;;;;;5020895;28;20121;-71
2021/10/16 11:05:23;;;;;;;6.15;1.50;;;13.90;79.90;;;;;;5015309;28;20021;-71
2021/10/16 11:07:49;;;;;;;3.25;1.27;;;14.20;79.00;;;;;;5014297;28;20498;-71
2021/10/16 11:10:16;;;;;;;5.88;1.20;;;14.30;77.20;;;;;;5017507;28;20156;-71
2021/10/16 11:12:44;;;;;;;3.13;1.17;;;14.50;75.90;;;;;;5011056;28;20539;-71
2021/10/16 11:15:12;;;;;;;4.07;1.27;;;14.70;75.90;;;;;;5016905;28;20053;-71
2021/10/16 11:17:41;;;;;;;4.50;1.00;;;14.80;72.40;;;;;;5017512;28;20044;-71
2021/10/16 11:20:09;;;;;;;3.55;0.88;;;14.70;73.10;;;;;;5026628;28;20033;-71
2021/10/16 11:22:45;;;;;;;4.25;0.85;;;14.70;72.70;;;;;;5026458;28;20034;-71
2021/10/16 11:25:15;;;;;;;4.00;1.08;;;14.50;72.40;;;;;;5014909;28;20037;-71
2021/10/16 11:27:41;;;;;;;9.02;1.90;;;14.40;74.10;;;;;;5028521;28;20029;-71
2021/10/16 11:30:18;;;;;;;6.15;1.45;;;14.40;74.50;;;;;;5013363;28;20449;-73
2021/10/16 11:32:43;;;;;;;3.88;1.60;;;14.30;74.20;;;;;;5015972;28;20036;-75
2021/10/16 11:35:09;;;;;;;3.22;1.40;;;14.30;73.50;;;;;;5019176;28;20099;-68
2021/10/16 11:37:44;;;;;;;7.45;1.30;;;14.30;73.60;;;;;;5020796;28;20072;-67
2021/10/16 11:40:19;;;;;;;3.25;1.60;;;14.30;74.60;;;;;;5022340;28;20048;-68
2021/10/16 11:42:59;;;;;;;3.30;0.95;;;14.40;73.00;;;;;;5014102;28;20053;-68
2021/10/16 11:45:33;;;;;;;2.40;1.10;;;14.50;71.70;;;;;;5015012;28;20052;-68
2021/10/16 11:48:01;;;;;;;2.97;1.60;;;14.50;73.10;;;;;;5007564;28;20038;-68
2021/10/16 11:50:29;;;;;;;1.23;0.98;;;14.60;74.20;;;;;;5008159;28;20045;-67
2021/10/16 11:53:07;;;;;;;5.13;1.23;;;14.60;73.30;;;;;;5018261;28;20545;-67
2021/10/16 11:55:33;;;;;;;4.38;1.10;;;14.60;71.50;;;;;;5017368;28;20091;-67
2021/10/16 11:58:06;;;;;;;2.95;1.42;;;14.40;71.70;;;;;;5016438;28;20037;-66
2021/10/16 12:00:33;;;;;;;2.75;1.02;;;14.40;72.50;;;;;;5008417;28;20504;-66
2021/10/16 12:03:06;;;;;;;2.78;0.90;;;14.40;73.40;;;;;;5012675;28;20401;-68
2021/10/16 12:05:32;;;;;;;2.17;0.90;;;14.40;73.60;;;;;;5013197;28;20068;-69
2021/10/16 12:08:21;;;;;;;3.58;1.00;;;14.40;73.30;;;;;;5013052;28;20088;-69
2021/10/16 12:10:55;;;;;;;5.70;1.15;;;14.40;73.60;;;;;;5014140;28;20501;-68
2021/10/16 12:13:31;;;;;;;1.45;0.68;;;14.50;73.50;;;;;;5010536;28;20037;-67
2021/10/16 12:15:57;;;;;;;2.28;0.88;;;14.40;73.90;;;;;;5011757;28;20037;-68
2021/10/16 12:18:26;;;;;;;1.85;0.80;;;14.50;73.60;;;;;;5009158;28;20462;-68
2021/10/16 12:21:01;;;;;;;7.68;1.25;;;14.50;73.50;;;;;;5020743;28;20037;-67
2021/10/16 12:23:43;;;;;;;3.08;1.25;;;14.50;74.10;;;;;;5021365;28;20048;-70
2021/10/16 12:26:30;;;;;;;3.65;1.05;;;14.60;74.50;;;;;;5010390;28;20120;-65
2021/10/16 12:28:56;;;;;;;;;;;14.60;74.20;;;;;;5010291;28;20038;-67
2021/10/16 12:31:23;;;;;;;5.18;1.88;;;14.60;73.20;;;;;;5018324;28;20533;-68
2021/10/16 12:33:56;;;;;;;7.00;1.60;;;14.70;73.40;;;;;;5020329;28;20049;-67
2021/10/16 12:36:34;;;;;;;3.53;0.90;;;14.60;73.10;;;;;;5023303;28;20037;-68
2021/10/16 12:39:01;;;;;;;4.43;0.90;;;14.60;73.60;;;;;;5014772;28;20037;-67
2021/10/16 12:41:38;;;;;;;1.08;0.70;;;14.60;74.60;;;;;;5009828;28;20123;-70
2021/10/16 12:44:35;;;;;;;4.78;1.17;;;14.50;72.80;;;;;;5010852;28;20672;-71
2021/10/16 12:47:02;;;;;;;;;;;14.50;74.80;;;;;;5012904;28;20037;-70
2021/10/16 12:49:30;;;;;;;2.92;0.90;;;14.40;76.80;;;;;;5014156;28;19909;-70
2021/10/16 12:51:58;;;;;;;3.65;1.10;;;14.50;77.00;;;;;;5011854;28;20453;-69
2021/10/16 12:54:37;;;;;;;3.10;0.93;;;14.50;77.80;;;;;;5018974;28;20048;-71
2021/10/16 12:57:05;;;;;;;2.83;0.82;;;14.50;78.50;;;;;;5010784;28;20060;-69
2021/10/16 12:59:31;;;;;;;1.63;0.70;;;14.50;75.80;;;;;;5030438;28;20120;-68